sensor_id;sensor_type;location;lat;lon;timestamp;P1;durP1;ratioP1;P2;durP2;ratioP2
43933;SDS011;59081;42.706;23.306;2023-02-23T00:04:37;39.10;;;19.02;;
43933;SDS011;59081;42.706;23.306;2023-02-23T00:07:32;35.85;;;18.05;;
43933;SDS011;59081;42.706;23.306;2023-02-23T00:10:09;35.75;;;19.10;;
43933;SDS011;59081;42.706;23.306;2023-02-23T00:12:46;32.83;;;16.55;;
43933;SDS011;59081;42.706;23.306;2023-02-23T00:15:17;23.40;;;11.95;;
43933;SDS011;59081;42.706;23.306;2023-02-23T00:17:43;21.38;;;11.57;;
43933;SDS011;59081;42.706;23.306;2023-02-23T00:20:11;19.45;;;10.75;;
43933;SDS011;59081;42.706;23.306;2023-02-23T00:22:38;18.90;;;10.00;;
43933;SDS011;59081;42.706;23.306;2023-02-23T00:25:07;27.52;;;10.35;;
43933;SDS011;59081;42.706;23.306;2023-02-23T00:27:38;16.05;;;8.40;;
43933;SDS011;59081;42.706;23.306;2023-02-23T00:30:10;20.67;;;8.63;;
43933;SDS011;59081;42.706;23.306;2023-02-23T00:32:48;19.83;;;9.27;;
43933;SDS011;59081;42.706;23.306;2023-02-23T00:35:20;17.58;;;9.43;;
43933;SDS011;59081;42.706;23.306;2023-02-23T00:37:46;14.43;;;8.75;;
43933;SDS011;59081;42.706;23.306;2023-02-23T00:40:17;21.80;;;9.68;;
43933;SDS011;59081;42.706;23.306;2023-02-23T00:42:46;16.10;;;9.27;;
43933;SDS011;59081;42.706;23.306;2023-02-23T00:45:17;13.43;;;9.25;;
43933;SDS011;59081;42.706;23.306;2023-02-23T00:47:55;18.52;;;8.73;;
43933;SDS011;59081;42.706;23.306;2023-02-23T00:50:29;17.23;;;8.63;;
43933;SDS011;59081;42.706;23.306;2023-02-23T00:52:58;17.00;;;9.25;;
43933;SDS011;59081;42.706;23.306;2023-02-23T00:55:31;16.48;;;8.65;;
43933;SDS011;59081;42.706;23.306;2023-02-23T00:58:02;14.05;;;8.82;;
43933;SDS011;59081;42.706;23.306;2023-02-23T01:00:33;18.90;;;9.77;;
43933;SDS011;59081;42.706;23.306;2023-02-23T01:03:06;16.50;;;8.90;;
43933;SDS011;59081;42.706;23.306;2023-02-23T01:05:37;16.75;;;8.80;;
43933;SDS011;59081;42.706;23.306;2023-02-23T01:08:03;14.88;;;8.63;;
43933;SDS011;59081;42.706;23.306;2023-02-23T01:10:33;17.60;;;9.10;;
43933;SDS011;59081;42.706;23.306;2023-02-23T01:13:22;17.15;;;9.32;;
43933;SDS011;59081;42.706;23.306;2023-02-23T01:16:30;20.35;;;10.18;;
43933;SDS011;59081;42.706;23.306;2023-02-23T01:18:59;17.95;;;9.63;;
43933;SDS011;59081;42.706;23.306;2023-02-23T01:21:38;17.83;;;9.52;;
43933;SDS011;59081;42.706;23.306;2023-02-23T01:24:09;14.98;;;9.95;;
43933;SDS011;59081;42.706;23.306;2023-02-23T01:26:41;21.98;;;10.48;;
43933;SDS011;59081;42.706;23.306;2023-02-23T01:29:14;19.58;;;10.07;;
43933;SDS011;59081;42.706;23.306;2023-02-23T01:31:50;19.88;;;10.57;;
43933;SDS011;59081;42.706;23.306;2023-02-23T01:34:22;21.25;;;10.70;;
43933;SDS011;59081;42.706;23.306;2023-02-23T01:36:53;19.65;;;11.02;;
43933;SDS011;59081;42.706;23.306;2023-02-23T01:39:43;23.92;;;11.43;;
43933;SDS011;59081;42.706;23.306;2023-02-23T01:42:14;22.08;;;11.32;;
43933;SDS011;59081;42.706;23.306;2023-02-23T01:47:53;17.92;;;10.52;;
43933;SDS011;59081;42.706;23.306;2023-02-23T01:50:35;21.65;;;11.63;;
43933;SDS011;59081;42.706;23.306;2023-02-23T01:53:24;19.88;;;10.80;;
43933;SDS011;59081;42.706;23.306;2023-02-23T01:56:20;17.52;;;10.32;;
43933;SDS011;59081;42.706;23.306;2023-02-23T01:59:04;23.67;;;11.13;;
43933;SDS011;59081;42.706;23.306;2023-02-23T02:01:34;22.40;;;11.38;;
43933;SDS011;59081;42.706;23.306;2023-02-23T02:04:08;24.27;;;12.27;;
43933;SDS011;59081;42.706;23.306;2023-02-23T02:06:48;25.88;;;13.95;;
43933;SDS011;59081;42.706;23.306;2023-02-23T02:09:29;28.88;;;13.60;;
43933;SDS011;59081;42.706;23.306;2023-02-23T02:12:10;28.27;;;14.18;;
43933;SDS011;59081;42.706;23.306;2023-02-23T02:14:46;28.20;;;14.55;;
43933;SDS011;59081;42.706;23.306;2023-02-23T02:26:20;24.35;;;14.32;;
43933;SDS011;59081;42.706;23.306;2023-02-23T02:31:59;24.83;;;13.18;;
43933;SDS011;59081;42.706;23.306;2023-02-23T02:34:55;22.02;;;11.95;;
43933;SDS011;59081;42.706;23.306;2023-02-23T02:38:11;24.10;;;13.68;;
43933;SDS011;59081;42.706;23.306;2023-02-23T02:46:42;21.80;;;12.40;;
43933;SDS011;59081;42.706;23.306;2023-02-23T02:54:39;23.58;;;12.80;;
43933;SDS011;59081;42.706;23.306;2023-02-23T02:57:20;26.77;;;12.98;;
43933;SDS011;59081;42.706;23.306;2023-02-23T02:59:59;32.00;;;14.85;;
43933;SDS011;59081;42.706;23.306;2023-02-23T03:02:48;23.15;;;12.57;;
43933;SDS011;59081;42.706;23.306;2023-02-23T03:05:39;26.67;;;13.55;;
43933;SDS011;59081;42.706;23.306;2023-02-23T03:08:32;24.00;;;13.65;;
43933;SDS011;59081;42.706;23.306;2023-02-23T03:21:21;20.42;;;11.93;;
43933;SDS011;59081;42.706;23.306;2023-02-23T03:24:32;26.48;;;12.13;;
43933;SDS011;59081;42.706;23.306;2023-02-23T03:27:25;23.08;;;12.07;;
43933;SDS011;59081;42.706;23.306;2023-02-23T03:30:20;19.38;;;11.88;;
43933;SDS011;59081;42.706;23.306;2023-02-23T03:36:45;34.00;;;15.57;;
43933;SDS011;59081;42.706;23.306;2023-02-23T03:39:36;28.70;;;12.65;;
43933;SDS011;59081;42.706;23.306;2023-02-23T03:45:35;23.75;;;12.27;;
43933;SDS011;59081;42.706;23.306;2023-02-23T03:48:27;26.70;;;13.18;;
43933;SDS011;59081;42.706;23.306;2023-02-23T03:51:31;27.95;;;14.43;;
43933;SDS011;59081;42.706;23.306;2023-02-23T03:57:42;25.38;;;13.60;;
43933;SDS011;59081;42.706;23.306;2023-02-23T04:06:53;27.02;;;13.85;;
43933;SDS011;59081;42.706;23.306;2023-02-23T04:10:01;23.83;;;12.57;;
43933;SDS011;59081;42.706;23.306;2023-02-23T04:13:02;24.83;;;13.27;;
43933;SDS011;59081;42.706;23.306;2023-02-23T04:18:36;27.02;;;13.32;;
43933;SDS011;59081;42.706;23.306;2023-02-23T04:21:06;26.48;;;14.45;;
43933;SDS011;59081;42.706;23.306;2023-02-23T04:23:38;26.33;;;13.90;;
43933;SDS011;59081;42.706;23.306;2023-02-23T04:26:06;23.30;;;13.80;;
43933;SDS011;59081;42.706;23.306;2023-02-23T04:28:40;26.83;;;13.43;;
43933;SDS011;59081;42.706;23.306;2023-02-23T04:31:08;23.83;;;13.05;;
43933;SDS011;59081;42.706;23.306;2023-02-23T04:33:37;26.60;;;13.32;;
43933;SDS011;59081;42.706;23.306;2023-02-23T04:36:05;24.05;;;12.20;;
43933;SDS011;59081;42.706;23.306;2023-02-23T04:38:31;22.92;;;12.30;;
43933;SDS011;59081;42.706;23.306;2023-02-23T04:41:22;27.15;;;12.18;;
43933;SDS011;59081;42.706;23.306;2023-02-23T04:43:55;20.85;;;12.13;;
43933;SDS011;59081;42.706;23.306;2023-02-23T04:46:24;24.98;;;12.10;;
43933;SDS011;59081;42.706;23.306;2023-02-23T04:48:52;24.60;;;14.05;;
43933;SDS011;59081;42.706;23.306;2023-02-23T04:51:37;21.38;;;12.70;;
43933;SDS011;59081;42.706;23.306;2023-02-23T04:54:13;21.98;;;12.07;;
43933;SDS011;59081;42.706;23.306;2023-02-23T04:56:52;20.60;;;11.27;;
43933;SDS011;59081;42.706;23.306;2023-02-23T04:59:39;24.30;;;13.07;;
43933;SDS011;59081;42.706;23.306;2023-02-23T05:02:13;24.35;;;12.30;;
43933;SDS011;59081;42.706;23.306;2023-02-23T05:04:44;22.60;;;11.50;;
43933;SDS011;59081;42.706;23.306;2023-02-23T05:07:16;28.27;;;12.57;;
43933;SDS011;59081;42.706;23.306;2023-02-23T05:09:43;21.77;;;11.80;;
43933;SDS011;59081;42.706;23.306;2023-02-23T05:15:06;21.85;;;13.30;;
43933;SDS011;59081;42.706;23.306;2023-02-23T05:17:41;27.20;;;13.43;;
43933;SDS011;59081;42.706;23.306;2023-02-23T05:20:09;27.45;;;13.15;;
43933;SDS011;59081;42.706;23.306;2023-02-23T05:22:42;32.97;;;15.85;;
43933;SDS011;59081;42.706;23.306;2023-02-23T05:25:14;34.72;;;18.02;;
43933;SDS011;59081;42.706;23.306;2023-02-23T05:27:50;31.30;;;17.02;;
43933;SDS011;59081;42.706;23.306;2023-02-23T05:34:06;33.63;;;17.48;;
43933;SDS011;59081;42.706;23.306;2023-02-23T05:36:37;29.33;;;16.67;;
43933;SDS011;59081;42.706;23.306;2023-02-23T05:39:12;37.92;;;17.45;;
43933;SDS011;59081;42.706;23.306;2023-02-23T05:41:41;39.25;;;18.80;;
43933;SDS011;59081;42.706;23.306;2023-02-23T05:44:28;30.05;;;17.38;;
43933;SDS011;59081;42.706;23.306;2023-02-23T05:46:57;30.02;;;16.75;;
43933;SDS011;59081;42.706;23.306;2023-02-23T05:49:38;34.53;;;17.98;;
43933;SDS011;59081;42.706;23.306;2023-02-23T05:52:13;33.88;;;16.98;;
43933;SDS011;59081;42.706;23.306;2023-02-23T05:54:43;35.58;;;17.08;;
43933;SDS011;59081;42.706;23.306;2023-02-23T05:57:24;36.63;;;18.02;;
43933;SDS011;59081;42.706;23.306;2023-02-23T05:59:55;35.80;;;18.38;;
43933;SDS011;59081;42.706;23.306;2023-02-23T06:02:21;28.27;;;16.35;;
43933;SDS011;59081;42.706;23.306;2023-02-23T06:05:06;38.72;;;20.10;;
43933;SDS011;59081;42.706;23.306;2023-02-23T06:07:36;36.03;;;20.02;;
43933;SDS011;59081;42.706;23.306;2023-02-23T06:10:03;39.15;;;19.40;;
43933;SDS011;59081;42.706;23.306;2023-02-23T06:12:39;42.90;;;20.58;;
43933;SDS011;59081;42.706;23.306;2023-02-23T06:15:08;37.58;;;19.58;;
43933;SDS011;59081;42.706;23.306;2023-02-23T06:17:49;35.45;;;20.10;;
43933;SDS011;59081;42.706;23.306;2023-02-23T06:22:48;35.43;;;18.80;;
43933;SDS011;59081;42.706;23.306;2023-02-23T06:25:20;43.53;;;20.55;;
43933;SDS011;59081;42.706;23.306;2023-02-23T06:27:46;39.25;;;21.45;;
43933;SDS011;59081;42.706;23.306;2023-02-23T06:30:23;37.72;;;19.25;;
43933;SDS011;59081;42.706;23.306;2023-02-23T06:32:52;38.17;;;19.52;;
43933;SDS011;59081;42.706;23.306;2023-02-23T06:35:38;41.25;;;21.20;;
43933;SDS011;59081;42.706;23.306;2023-02-23T06:38:04;40.05;;;18.83;;
43933;SDS011;59081;42.706;23.306;2023-02-23T06:40:30;34.15;;;18.05;;
43933;SDS011;59081;42.706;23.306;2023-02-23T06:42:56;34.97;;;18.02;;
43933;SDS011;59081;42.706;23.306;2023-02-23T06:45:21;34.80;;;17.85;;
43933;SDS011;59081;42.706;23.306;2023-02-23T06:47:47;34.60;;;17.25;;
43933;SDS011;59081;42.706;23.306;2023-02-23T06:50:13;35.92;;;17.00;;
43933;SDS011;59081;42.706;23.306;2023-02-23T06:52:39;38.20;;;18.85;;
43933;SDS011;59081;42.706;23.306;2023-02-23T06:55:07;39.00;;;20.08;;
43933;SDS011;59081;42.706;23.306;2023-02-23T06:57:34;37.55;;;21.40;;
43933;SDS011;59081;42.706;23.306;2023-02-23T06:59:59;36.22;;;19.95;;
43933;SDS011;59081;42.706;23.306;2023-02-23T07:02:28;33.20;;;19.80;;
43933;SDS011;59081;42.706;23.306;2023-02-23T07:04:54;38.55;;;19.13;;
43933;SDS011;59081;42.706;23.306;2023-02-23T07:07:20;35.83;;;19.70;;
43933;SDS011;59081;42.706;23.306;2023-02-23T07:09:46;34.28;;;19.05;;
43933;SDS011;59081;42.706;23.306;2023-02-23T07:12:11;37.88;;;18.80;;
43933;SDS011;59081;42.706;23.306;2023-02-23T07:14:37;33.63;;;18.38;;
43933;SDS011;59081;42.706;23.306;2023-02-23T07:17:03;31.50;;;19.35;;
43933;SDS011;59081;42.706;23.306;2023-02-23T07:19:30;37.22;;;18.92;;
43933;SDS011;59081;42.706;23.306;2023-02-23T07:21:56;34.90;;;20.48;;
43933;SDS011;59081;42.706;23.306;2023-02-23T07:24:21;36.65;;;19.77;;
43933;SDS011;59081;42.706;23.306;2023-02-23T07:26:47;40.83;;;19.60;;
43933;SDS011;59081;42.706;23.306;2023-02-23T07:29:13;36.72;;;19.65;;
43933;SDS011;59081;42.706;23.306;2023-02-23T07:31:39;34.45;;;18.95;;
43933;SDS011;59081;42.706;23.306;2023-02-23T07:34:05;37.03;;;19.13;;
43933;SDS011;59081;42.706;23.306;2023-02-23T07:36:32;34.90;;;19.08;;
43933;SDS011;59081;42.706;23.306;2023-02-23T07:38:57;37.20;;;20.08;;
43933;SDS011;59081;42.706;23.306;2023-02-23T07:41:23;32.58;;;19.67;;
43933;SDS011;59081;42.706;23.306;2023-02-23T07:43:49;37.88;;;19.70;;
43933;SDS011;59081;42.706;23.306;2023-02-23T07:46:14;45.17;;;19.77;;
43933;SDS011;59081;42.706;23.306;2023-02-23T07:48:40;40.83;;;19.95;;
43933;SDS011;59081;42.706;23.306;2023-02-23T07:51:13;30.98;;;18.05;;
43933;SDS011;59081;42.706;23.306;2023-02-23T07:53:39;34.28;;;18.23;;
43933;SDS011;59081;42.706;23.306;2023-02-23T07:56:06;37.58;;;18.35;;
43933;SDS011;59081;42.706;23.306;2023-02-23T07:58:34;35.25;;;18.15;;
43933;SDS011;59081;42.706;23.306;2023-02-23T08:01:01;30.73;;;15.80;;
43933;SDS011;59081;42.706;23.306;2023-02-23T08:03:26;33.90;;;18.55;;
43933;SDS011;59081;42.706;23.306;2023-02-23T08:05:52;29.98;;;15.05;;
43933;SDS011;59081;42.706;23.306;2023-02-23T08:08:18;31.13;;;16.00;;
43933;SDS011;59081;42.706;23.306;2023-02-23T08:10:44;23.50;;;14.27;;
43933;SDS011;59081;42.706;23.306;2023-02-23T08:13:11;26.00;;;14.05;;
43933;SDS011;59081;42.706;23.306;2023-02-23T08:15:37;28.67;;;14.52;;
43933;SDS011;59081;42.706;23.306;2023-02-23T08:18:02;24.95;;;15.43;;
43933;SDS011;59081;42.706;23.306;2023-02-23T08:20:29;30.05;;;15.57;;
43933;SDS011;59081;42.706;23.306;2023-02-23T08:22:55;29.05;;;14.65;;
43933;SDS011;59081;42.706;23.306;2023-02-23T08:25:21;43.10;;;16.75;;
43933;SDS011;59081;42.706;23.306;2023-02-23T08:27:47;30.08;;;17.73;;
43933;SDS011;59081;42.706;23.306;2023-02-23T08:30:16;37.05;;;17.70;;
43933;SDS011;59081;42.706;23.306;2023-02-23T08:32:43;31.48;;;14.98;;
43933;SDS011;59081;42.706;23.306;2023-02-23T08:35:08;31.45;;;17.70;;
43933;SDS011;59081;42.706;23.306;2023-02-23T08:37:34;33.20;;;15.55;;
43933;SDS011;59081;42.706;23.306;2023-02-23T08:40:00;27.58;;;15.50;;
43933;SDS011;59081;42.706;23.306;2023-02-23T08:42:26;28.10;;;15.18;;
43933;SDS011;59081;42.706;23.306;2023-02-23T08:44:52;24.02;;;16.08;;
43933;SDS011;59081;42.706;23.306;2023-02-23T08:47:18;25.02;;;14.82;;
43933;SDS011;59081;42.706;23.306;2023-02-23T08:49:48;31.25;;;16.70;;
43933;SDS011;59081;42.706;23.306;2023-02-23T08:52:14;23.25;;;15.13;;
43933;SDS011;59081;42.706;23.306;2023-02-23T08:54:40;24.17;;;14.68;;
43933;SDS011;59081;42.706;23.306;2023-02-23T08:57:06;26.30;;;15.27;;
43933;SDS011;59081;42.706;23.306;2023-02-23T08:59:31;28.98;;;16.00;;
43933;SDS011;59081;42.706;23.306;2023-02-23T09:01:57;28.55;;;15.32;;
43933;SDS011;59081;42.706;23.306;2023-02-23T09:04:22;22.13;;;15.07;;
43933;SDS011;59081;42.706;23.306;2023-02-23T09:06:49;25.15;;;15.93;;
43933;SDS011;59081;42.706;23.306;2023-02-23T09:09:15;27.10;;;15.85;;
43933;SDS011;59081;42.706;23.306;2023-02-23T09:11:41;26.58;;;14.65;;
43933;SDS011;59081;42.706;23.306;2023-02-23T09:14:07;20.80;;;13.55;;
43933;SDS011;59081;42.706;23.306;2023-02-23T09:16:33;22.80;;;13.70;;
43933;SDS011;59081;42.706;23.306;2023-02-23T09:19:00;28.00;;;13.50;;
43933;SDS011;59081;42.706;23.306;2023-02-23T09:21:26;21.80;;;13.35;;
43933;SDS011;59081;42.706;23.306;2023-02-23T09:23:54;25.05;;;14.88;;
43933;SDS011;59081;42.706;23.306;2023-02-23T09:26:21;26.27;;;13.05;;
43933;SDS011;59081;42.706;23.306;2023-02-23T09:28:47;22.70;;;13.13;;
43933;SDS011;59081;42.706;23.306;2023-02-23T09:31:15;23.10;;;12.80;;
43933;SDS011;59081;42.706;23.306;2023-02-23T09:33:42;18.92;;;11.27;;
43933;SDS011;59081;42.706;23.306;2023-02-23T09:36:09;23.65;;;12.95;;
43933;SDS011;59081;42.706;23.306;2023-02-23T09:38:40;21.45;;;13.02;;
43933;SDS011;59081;42.706;23.306;2023-02-23T09:42:09;25.20;;;12.75;;
43933;SDS011;59081;42.706;23.306;2023-02-23T09:47:27;21.17;;;12.43;;
43933;SDS011;59081;42.706;23.306;2023-02-23T09:49:58;20.85;;;10.00;;
43933;SDS011;59081;42.706;23.306;2023-02-23T09:52:37;17.40;;;10.98;;
43933;SDS011;59081;42.706;23.306;2023-02-23T09:55:08;22.13;;;11.75;;
43933;SDS011;59081;42.706;23.306;2023-02-23T09:57:37;17.92;;;10.98;;
43933;SDS011;59081;42.706;23.306;2023-02-23T10:00:38;20.63;;;11.25;;
43933;SDS011;59081;42.706;23.306;2023-02-23T10:05:45;15.93;;;8.52;;
43933;SDS011;59081;42.706;23.306;2023-02-23T10:08:19;18.58;;;9.13;;
43933;SDS011;59081;42.706;23.306;2023-02-23T10:14:27;15.30;;;9.98;;
43933;SDS011;59081;42.706;23.306;2023-02-23T10:16:55;18.90;;;11.20;;
43933;SDS011;59081;42.706;23.306;2023-02-23T10:22:33;20.60;;;10.52;;
43933;SDS011;59081;42.706;23.306;2023-02-23T10:25:19;14.65;;;9.80;;
43933;SDS011;59081;42.706;23.306;2023-02-23T10:27:49;22.52;;;9.63;;
43933;SDS011;59081;42.706;23.306;2023-02-23T10:30:36;23.00;;;11.15;;
43933;SDS011;59081;42.706;23.306;2023-02-23T10:33:06;14.65;;;8.77;;
43933;SDS011;59081;42.706;23.306;2023-02-23T10:35:43;19.38;;;10.52;;
43933;SDS011;59081;42.706;23.306;2023-02-23T10:38:16;14.35;;;8.23;;
43933;SDS011;59081;42.706;23.306;2023-02-23T10:40:44;17.27;;;9.15;;
43933;SDS011;59081;42.706;23.306;2023-02-23T10:43:13;12.23;;;7.72;;
43933;SDS011;59081;42.706;23.306;2023-02-23T10:45:49;16.13;;;9.60;;
43933;SDS011;59081;42.706;23.306;2023-02-23T10:48:18;14.00;;;9.00;;
43933;SDS011;59081;42.706;23.306;2023-02-23T10:50:48;19.08;;;9.73;;
43933;SDS011;59081;42.706;23.306;2023-02-23T10:53:22;10.02;;;6.95;;
43933;SDS011;59081;42.706;23.306;2023-02-23T10:58:26;13.93;;;8.52;;
43933;SDS011;59081;42.706;23.306;2023-02-23T11:03:22;16.20;;;8.20;;
43933;SDS011;59081;42.706;23.306;2023-02-23T11:05:51;13.57;;;6.68;;
43933;SDS011;59081;42.706;23.306;2023-02-23T11:08:22;15.80;;;7.35;;
43933;SDS011;59081;42.706;23.306;2023-02-23T11:10:55;13.55;;;7.80;;
43933;SDS011;59081;42.706;23.306;2023-02-23T11:13:26;13.00;;;7.18;;
43933;SDS011;59081;42.706;23.306;2023-02-23T11:15:57;14.95;;;7.90;;
43933;SDS011;59081;42.706;23.306;2023-02-23T11:18:25;11.95;;;6.97;;
43933;SDS011;59081;42.706;23.306;2023-02-23T11:20:51;16.08;;;8.40;;
43933;SDS011;59081;42.706;23.306;2023-02-23T11:23:20;12.98;;;7.10;;
43933;SDS011;59081;42.706;23.306;2023-02-23T11:25:53;13.50;;;7.90;;
43933;SDS011;59081;42.706;23.306;2023-02-23T11:30:55;10.43;;;5.75;;
43933;SDS011;59081;42.706;23.306;2023-02-23T11:33:24;14.07;;;7.47;;
43933;SDS011;59081;42.706;23.306;2023-02-23T11:35:59;12.75;;;7.22;;
43933;SDS011;59081;42.706;23.306;2023-02-23T11:38:36;13.75;;;6.20;;
43933;SDS011;59081;42.706;23.306;2023-02-23T11:41:03;10.00;;;5.80;;
43933;SDS011;59081;42.706;23.306;2023-02-23T11:43:35;7.93;;;5.13;;
43933;SDS011;59081;42.706;23.306;2023-02-23T11:46:01;10.57;;;5.63;;
43933;SDS011;59081;42.706;23.306;2023-02-23T11:51:07;11.52;;;5.45;;
43933;SDS011;59081;42.706;23.306;2023-02-23T11:56:04;10.27;;;5.28;;
43933;SDS011;59081;42.706;23.306;2023-02-23T12:01:39;15.85;;;6.20;;
43933;SDS011;59081;42.706;23.306;2023-02-23T12:04:22;10.07;;;5.07;;
43933;SDS011;59081;42.706;23.306;2023-02-23T12:10:18;8.63;;;4.95;;
43933;SDS011;59081;42.706;23.306;2023-02-23T12:18:01;9.55;;;4.88;;
43933;SDS011;59081;42.706;23.306;2023-02-23T12:20:40;7.13;;;4.75;;
43933;SDS011;59081;42.706;23.306;2023-02-23T12:23:10;9.63;;;5.13;;
43933;SDS011;59081;42.706;23.306;2023-02-23T12:28:35;8.07;;;5.95;;
43933;SDS011;59081;42.706;23.306;2023-02-23T12:33:49;11.13;;;4.97;;
43933;SDS011;59081;42.706;23.306;2023-02-23T12:36:26;9.45;;;4.80;;
43933;SDS011;59081;42.706;23.306;2023-02-23T12:41:39;7.85;;;5.40;;
43933;SDS011;59081;42.706;23.306;2023-02-23T12:44:30;11.23;;;5.13;;
43933;SDS011;59081;42.706;23.306;2023-02-23T12:47:12;15.40;;;5.40;;
43933;SDS011;59081;42.706;23.306;2023-02-23T12:52:31;8.02;;;4.70;;
43933;SDS011;59081;42.706;23.306;2023-02-23T12:55:01;8.85;;;5.00;;
43933;SDS011;59081;42.706;23.306;2023-02-23T13:11:34;4.97;;;3.45;;
43933;SDS011;59081;42.706;23.306;2023-02-23T13:14:29;5.25;;;4.15;;
43933;SDS011;59081;42.706;23.306;2023-02-23T13:17:11;9.65;;;5.32;;
43933;SDS011;59081;42.706;23.306;2023-02-23T13:20:23;15.05;;;5.18;;
43933;SDS011;59081;42.706;23.306;2023-02-23T13:22:58;9.85;;;5.13;;
43933;SDS011;59081;42.706;23.306;2023-02-23T13:25:27;10.25;;;5.35;;
43933;SDS011;59081;42.706;23.306;2023-02-23T13:28:00;8.30;;;4.20;;
43933;SDS011;59081;42.706;23.306;2023-02-23T13:30:28;7.03;;;3.97;;
43933;SDS011;59081;42.706;23.306;2023-02-23T13:33:07;8.10;;;4.38;;
43933;SDS011;59081;42.706;23.306;2023-02-23T13:35:40;10.63;;;4.13;;
43933;SDS011;59081;42.706;23.306;2023-02-23T13:38:10;8.43;;;4.05;;
43933;SDS011;59081;42.706;23.306;2023-02-23T13:43:40;8.80;;;4.40;;
43933;SDS011;59081;42.706;23.306;2023-02-23T13:49:07;10.10;;;4.50;;
43933;SDS011;59081;42.706;23.306;2023-02-23T13:51:59;10.82;;;5.32;;
43933;SDS011;59081;42.706;23.306;2023-02-23T13:54:34;12.45;;;4.80;;
43933;SDS011;59081;42.706;23.306;2023-02-23T13:57:02;11.70;;;4.70;;
43933;SDS011;59081;42.706;23.306;2023-02-23T13:59:41;12.23;;;4.68;;
43933;SDS011;59081;42.706;23.306;2023-02-23T14:07:31;8.43;;;4.18;;
43933;SDS011;59081;42.706;23.306;2023-02-23T14:10:03;5.93;;;4.10;;
43933;SDS011;59081;42.706;23.306;2023-02-23T14:15:47;10.18;;;4.43;;
43933;SDS011;59081;42.706;23.306;2023-02-23T14:18:03;7.88;;;3.88;;
43933;SDS011;59081;42.706;23.306;2023-02-23T14:25:46;9.98;;;6.18;;
43933;SDS011;59081;42.706;23.306;2023-02-23T14:28:26;10.10;;;5.63;;
43933;SDS011;59081;42.706;23.306;2023-02-23T14:31:00;13.80;;;6.60;;
43933;SDS011;59081;42.706;23.306;2023-02-23T14:33:36;21.55;;;12.95;;
43933;SDS011;59081;42.706;23.306;2023-02-23T14:38:49;15.25;;;8.07;;
43933;SDS011;59081;42.706;23.306;2023-02-23T14:41:27;8.75;;;6.47;;
43933;SDS011;59081;42.706;23.306;2023-02-23T14:44:05;10.15;;;7.03;;
43933;SDS011;59081;42.706;23.306;2023-02-23T14:46:38;14.20;;;6.68;;
43933;SDS011;59081;42.706;23.306;2023-02-23T14:49:20;11.68;;;6.50;;
43933;SDS011;59081;42.706;23.306;2023-02-23T14:51:52;13.43;;;7.68;;
43933;SDS011;59081;42.706;23.306;2023-02-23T14:54:33;14.18;;;5.57;;
43933;SDS011;59081;42.706;23.306;2023-02-23T14:57:00;15.30;;;5.30;;
43933;SDS011;59081;42.706;23.306;2023-02-23T14:59:37;8.25;;;4.30;;
43933;SDS011;59081;42.706;23.306;2023-02-23T15:02:20;12.80;;;4.95;;
43933;SDS011;59081;42.706;23.306;2023-02-23T15:04:50;10.23;;;5.03;;
43933;SDS011;59081;42.706;23.306;2023-02-23T15:09:55;10.60;;;5.53;;
43933;SDS011;59081;42.706;23.306;2023-02-23T15:12:24;14.27;;;5.03;;
43933;SDS011;59081;42.706;23.306;2023-02-23T15:17:30;4.85;;;2.63;;
43933;SDS011;59081;42.706;23.306;2023-02-23T15:20:01;8.63;;;5.63;;
43933;SDS011;59081;42.706;23.306;2023-02-23T15:22:33;7.15;;;5.10;;
43933;SDS011;59081;42.706;23.306;2023-02-23T15:25:16;13.25;;;5.30;;
43933;SDS011;59081;42.706;23.306;2023-02-23T15:27:44;11.02;;;6.00;;
43933;SDS011;59081;42.706;23.306;2023-02-23T15:30:18;10.13;;;6.57;;
43933;SDS011;59081;42.706;23.306;2023-02-23T15:32:46;10.40;;;6.82;;
43933;SDS011;59081;42.706;23.306;2023-02-23T15:35:13;5.75;;;3.92;;
43933;SDS011;59081;42.706;23.306;2023-02-23T15:37:43;10.20;;;5.05;;
43933;SDS011;59081;42.706;23.306;2023-02-23T15:40:18;14.68;;;6.30;;
43933;SDS011;59081;42.706;23.306;2023-02-23T15:42:49;10.82;;;6.60;;
43933;SDS011;59081;42.706;23.306;2023-02-23T15:45:38;15.50;;;7.05;;
43933;SDS011;59081;42.706;23.306;2023-02-23T15:48:15;11.85;;;7.45;;
43933;SDS011;59081;42.706;23.306;2023-02-23T15:50:47;13.07;;;5.60;;
43933;SDS011;59081;42.706;23.306;2023-02-23T15:53:39;15.35;;;5.68;;
43933;SDS011;59081;42.706;23.306;2023-02-23T15:58:45;12.68;;;5.63;;
43933;SDS011;59081;42.706;23.306;2023-02-23T16:01:18;9.63;;;6.03;;
43933;SDS011;59081;42.706;23.306;2023-02-23T16:06:53;10.02;;;5.63;;
43933;SDS011;59081;42.706;23.306;2023-02-23T16:09:38;11.70;;;6.65;;
43933;SDS011;59081;42.706;23.306;2023-02-23T16:12:09;10.60;;;5.53;;
43933;SDS011;59081;42.706;23.306;2023-02-23T16:14:50;10.20;;;6.20;;
43933;SDS011;59081;42.706;23.306;2023-02-23T16:17:23;7.25;;;3.63;;
43933;SDS011;59081;42.706;23.306;2023-02-23T16:26:17;9.70;;;5.50;;
43933;SDS011;59081;42.706;23.306;2023-02-23T16:28:51;14.48;;;7.03;;
43933;SDS011;59081;42.706;23.306;2023-02-23T16:31:38;15.10;;;6.78;;
43933;SDS011;59081;42.706;23.306;2023-02-23T16:37:10;10.57;;;6.15;;
43933;SDS011;59081;42.706;23.306;2023-02-23T16:39:50;5.85;;;2.90;;
43933;SDS011;59081;42.706;23.306;2023-02-23T16:44:51;14.40;;;7.55;;
43933;SDS011;59081;42.706;23.306;2023-02-23T16:47:49;13.50;;;7.32;;
43933;SDS011;59081;42.706;23.306;2023-02-23T16:50:20;15.68;;;7.78;;
43933;SDS011;59081;42.706;23.306;2023-02-23T16:52:49;12.95;;;8.10;;
43933;SDS011;59081;42.706;23.306;2023-02-23T16:55:22;13.63;;;8.57;;
43933;SDS011;59081;42.706;23.306;2023-02-23T16:57:49;10.70;;;6.32;;
43933;SDS011;59081;42.706;23.306;2023-02-23T17:00:25;9.20;;;5.82;;
43933;SDS011;59081;42.706;23.306;2023-02-23T17:03:05;6.63;;;5.05;;
43933;SDS011;59081;42.706;23.306;2023-02-23T17:05:38;15.45;;;7.95;;
43933;SDS011;59081;42.706;23.306;2023-02-23T17:08:10;13.43;;;7.85;;
43933;SDS011;59081;42.706;23.306;2023-02-23T17:10:49;15.18;;;7.70;;
43933;SDS011;59081;42.706;23.306;2023-02-23T17:13:28;10.25;;;6.13;;
43933;SDS011;59081;42.706;23.306;2023-02-23T17:15:59;13.30;;;7.27;;
43933;SDS011;59081;42.706;23.306;2023-02-23T17:18:37;17.05;;;9.02;;
43933;SDS011;59081;42.706;23.306;2023-02-23T17:21:12;25.80;;;11.40;;
43933;SDS011;59081;42.706;23.306;2023-02-23T17:23:47;19.45;;;8.68;;
43933;SDS011;59081;42.706;23.306;2023-02-23T17:26:23;22.00;;;11.20;;
43933;SDS011;59081;42.706;23.306;2023-02-23T17:28:52;36.22;;;13.40;;
43933;SDS011;59081;42.706;23.306;2023-02-23T17:31:27;12.68;;;7.15;;
43933;SDS011;59081;42.706;23.306;2023-02-23T17:34:03;36.47;;;17.25;;
43933;SDS011;59081;42.706;23.306;2023-02-23T17:36:37;28.45;;;14.95;;
43933;SDS011;59081;42.706;23.306;2023-02-23T17:39:11;28.58;;;15.45;;
43933;SDS011;59081;42.706;23.306;2023-02-23T17:41:54;28.90;;;13.88;;
43933;SDS011;59081;42.706;23.306;2023-02-23T17:44:30;29.70;;;15.73;;
43933;SDS011;59081;42.706;23.306;2023-02-23T17:46:56;14.90;;;9.30;;
43933;SDS011;59081;42.706;23.306;2023-02-23T17:49:31;26.30;;;13.85;;